sensor_id;sensor_type;location;lat;lon;timestamp;temperature;humidity
20690;DHT22;10504;48.762;8.996;2023-12-20T00:00:56;5.00;99.90
20690;DHT22;10504;48.762;8.996;2023-12-20T00:03:22;5.00;99.90
20690;DHT22;10504;48.762;8.996;2023-12-20T00:05:49;5.00;99.90
20690;DHT22;10504;48.762;8.996;2023-12-20T00:08:15;5.10;99.90
20690;DHT22;10504;48.762;8.996;2023-12-20T00:10:40;5.10;99.90
20690;DHT22;10504;48.762;8.996;2023-12-20T00:13:06;5.10;99.90
20690;DHT22;10504;48.762;8.996;2023-12-20T00:15:33;5.10;99.90
20690;DHT22;10504;48.762;8.996;2023-12-20T00:17:59;5.10;99.90
20690;DHT22;10504;48.762;8.996;2023-12-20T00:20:24;5.00;99.90
20690;DHT22;10504;48.762;8.996;2023-12-20T00:22:50;5.00;99.90
20690;DHT22;10504;48.762;8.996;2023-12-20T00:25:16;5.00;99.90
20690;DHT22;10504;48.762;8.996;2023-12-20T00:27:41;5.00;99.90
20690;DHT22;10504;48.762;8.996;2023-12-20T00:30:08;4.90;99.90
20690;DHT22;10504;48.762;8.996;2023-12-20T00:32:35;4.90;99.90
20690;DHT22;10504;48.762;8.996;2023-12-20T00:35:01;4.90;99.90
20690;DHT22;10504;48.762;8.996;2023-12-20T00:37:26;4.80;99.90
20690;DHT22;10504;48.762;8.996;2023-12-20T00:39:52;4.80;99.90
20690;DHT22;10504;48.762;8.996;2023-12-20T00:42:18;4.70;99.90
20690;DHT22;10504;48.762;8.996;2023-12-20T00:44:43;4.70;99.90
20690;DHT22;10504;48.762;8.996;2023-12-20T00:47:09;4.70;99.90
20690;DHT22;10504;48.762;8.996;2023-12-20T00:49:34;4.60;99.90
20690;DHT22;10504;48.762;8.996;2023-12-20T00:52:00;4.60;99.90
20690;DHT22;10504;48.762;8.996;2023-12-20T00:54:25;4.60;99.90
20690;DHT22;10504;48.762;8.996;2023-12-20T00:56:51;4.50;99.90
20690;DHT22;10504;48.762;8.996;2023-12-20T00:59:17;4.50;99.90
20690;DHT22;10504;48.762;8.996;2023-12-20T01:01:43;4.50;99.90
20690;DHT22;10504;48.762;8.996;2023-12-20T01:04:09;4.50;99.90
20690;DHT22;10504;48.762;8.996;2023-12-20T01:06:34;4.50;99.90
20690;DHT22;10504;48.762;8.996;2023-12-20T01:09:00;4.50;99.90
20690;DHT22;10504;48.762;8.996;2023-12-20T01:11:25;4.50;99.90
20690;DHT22;10504;48.762;8.996;2023-12-20T01:13:51;4.50;99.90
20690;DHT22;10504;48.762;8.996;2023-12-20T01:16:16;4.50;99.90
20690;DHT22;10504;48.762;8.996;2023-12-20T01:18:42;4.50;99.90
20690;DHT22;10504;48.762;8.996;2023-12-20T01:21:08;4.50;99.90
20690;DHT22;10504;48.762;8.996;2023-12-20T01:23:33;4.50;99.90
20690;DHT22;10504;48.762;8.996;2023-12-20T01:25:59;4.40;99.90
20690;DHT22;10504;48.762;8.996;2023-12-20T01:28:28;4.50;99.90
20690;DHT22;10504;48.762;8.996;2023-12-20T01:30:54;4.40;99.90
20690;DHT22;10504;48.762;8.996;2023-12-20T01:33:19;4.40;99.90
20690;DHT22;10504;48.762;8.996;2023-12-20T01:35:45;4.50;99.90
20690;DHT22;10504;48.762;8.996;2023-12-20T01:38:10;4.50;99.90
20690;DHT22;10504;48.762;8.996;2023-12-20T01:40:36;4.50;99.90
20690;DHT22;10504;48.762;8.996;2023-12-20T01:43:07;4.50;99.90
20690;DHT22;10504;48.762;8.996;2023-12-20T01:45:33;4.50;99.90
20690;DHT22;10504;48.762;8.996;2023-12-20T01:47:59;4.50;99.90
20690;DHT22;10504;48.762;8.996;2023-12-20T01:50:25;4.50;99.90
20690;DHT22;10504;48.762;8.996;2023-12-20T01:52:52;4.50;99.90
20690;DHT22;10504;48.762;8.996;2023-12-20T01:55:21;4.60;99.90
20690;DHT22;10504;48.762;8.996;2023-12-20T01:57:47;4.60;99.90
20690;DHT22;10504;48.762;8.996;2023-12-20T02:00:13;4.60;99.90
20690;DHT22;10504;48.762;8.996;2023-12-20T02:02:40;4.60;99.90
20690;DHT22;10504;48.762;8.996;2023-12-20T02:05:06;4.70;99.90
20690;DHT22;10504;48.762;8.996;2023-12-20T02:07:32;4.70;99.90
20690;DHT22;10504;48.762;8.996;2023-12-20T02:10:00;4.70;99.90
20690;DHT22;10504;48.762;8.996;2023-12-20T02:12:26;4.60;99.90
20690;DHT22;10504;48.762;8.996;2023-12-20T02:14:51;4.70;99.90
20690;DHT22;10504;48.762;8.996;2023-12-20T02:17:17;4.60;99.90
20690;DHT22;10504;48.762;8.996;2023-12-20T02:19:43;4.70;99.90
20690;DHT22;10504;48.762;8.996;2023-12-20T02:22:12;4.70;99.90
20690;DHT22;10504;48.762;8.996;2023-12-20T02:24:38;4.70;99.90
20690;DHT22;10504;48.762;8.996;2023-12-20T02:27:06;4.70;99.90
20690;DHT22;10504;48.762;8.996;2023-12-20T02:29:33;4.60;99.90
20690;DHT22;10504;48.762;8.996;2023-12-20T02:31:59;4.60;99.90
20690;DHT22;10504;48.762;8.996;2023-12-20T02:34:24;4.60;99.90
20690;DHT22;10504;48.762;8.996;2023-12-20T02:36:50;4.60;99.90
20690;DHT22;10504;48.762;8.996;2023-12-20T02:39:16;4.60;99.90
20690;DHT22;10504;48.762;8.996;2023-12-20T02:41:42;4.60;99.90
20690;DHT22;10504;48.762;8.996;2023-12-20T02:44:08;4.60;99.90
20690;DHT22;10504;48.762;8.996;2023-12-20T02:46:33;4.60;99.90
20690;DHT22;10504;48.762;8.996;2023-12-20T02:48:59;4.60;99.90
20690;DHT22;10504;48.762;8.996;2023-12-20T02:51:25;4.70;99.90
20690;DHT22;10504;48.762;8.996;2023-12-20T02:53:51;4.70;99.90
20690;DHT22;10504;48.762;8.996;2023-12-20T02:56:16;4.70;99.90
20690;DHT22;10504;48.762;8.996;2023-12-20T02:58:42;4.70;99.90
20690;DHT22;10504;48.762;8.996;2023-12-20T03:01:07;4.70;99.90
20690;DHT22;10504;48.762;8.996;2023-12-20T03:03:33;4.70;99.90
20690;DHT22;10504;48.762;8.996;2023-12-20T03:06:00;4.70;99.90
20690;DHT22;10504;48.762;8.996;2023-12-20T03:08:25;4.70;99.90
20690;DHT22;10504;48.762;8.996;2023-12-20T03:10:51;4.60;99.90
20690;DHT22;10504;48.762;8.996;2023-12-20T03:13:17;4.60;99.90
20690;DHT22;10504;48.762;8.996;2023-12-20T03:15:42;4.60;99.90
20690;DHT22;10504;48.762;8.996;2023-12-20T03:18:08;4.60;99.90
20690;DHT22;10504;48.762;8.996;2023-12-20T03:20:33;4.60;99.90
20690;DHT22;10504;48.762;8.996;2023-12-20T03:23:00;4.60;99.90
20690;DHT22;10504;48.762;8.996;2023-12-20T03:25:26;4.60;99.90
20690;DHT22;10504;48.762;8.996;2023-12-20T03:27:52;4.60;99.90
20690;DHT22;10504;48.762;8.996;2023-12-20T03:30:18;4.60;99.90
20690;DHT22;10504;48.762;8.996;2023-12-20T03:32:44;4.50;99.90
20690;DHT22;10504;48.762;8.996;2023-12-20T03:35:10;4.50;99.90
20690;DHT22;10504;48.762;8.996;2023-12-20T03:37:36;4.50;99.90
20690;DHT22;10504;48.762;8.996;2023-12-20T03:40:02;4.50;99.90
20690;DHT22;10504;48.762;8.996;2023-12-20T03:42:28;4.50;99.90
20690;DHT22;10504;48.762;8.996;2023-12-20T03:44:54;4.50;99.90
20690;DHT22;10504;48.762;8.996;2023-12-20T03:47:19;4.40;99.90
20690;DHT22;10504;48.762;8.996;2023-12-20T03:49:45;4.40;99.90
20690;DHT22;10504;48.762;8.996;2023-12-20T03:52:11;4.40;99.90
20690;DHT22;10504;48.762;8.996;2023-12-20T03:54:37;4.40;99.90
20690;DHT22;10504;48.762;8.996;2023-12-20T03:57:03;4.40;99.90
20690;DHT22;10504;48.762;8.996;2023-12-20T03:59:29;4.40;99.90
20690;DHT22;10504;48.762;8.996;2023-12-20T04:01:55;4.40;99.90
20690;DHT22;10504;48.762;8.996;2023-12-20T04:04:20;4.30;99.90
20690;DHT22;10504;48.762;8.996;2023-12-20T04:06:46;4.30;99.90
20690;DHT22;10504;48.762;8.996;2023-12-20T04:09:11;4.30;99.90
20690;DHT22;10504;48.762;8.996;2023-12-20T04:11:37;4.30;99.90
20690;DHT22;10504;48.762;8.996;2023-12-20T04:14:03;4.30;99.90
20690;DHT22;10504;48.762;8.996;2023-12-20T04:16:30;4.30;99.90
20690;DHT22;10504;48.762;8.996;2023-12-20T04:18:56;4.30;99.90
20690;DHT22;10504;48.762;8.996;2023-12-20T04:21:21;4.30;99.90
20690;DHT22;10504;48.762;8.996;2023-12-20T04:23:47;4.30;99.90
20690;DHT22;10504;48.762;8.996;2023-12-20T04:26:12;4.30;99.90
20690;DHT22;10504;48.762;8.996;2023-12-20T04:28:38;4.30;99.90
20690;DHT22;10504;48.762;8.996;2023-12-20T04:31:04;4.30;99.90
20690;DHT22;10504;48.762;8.996;2023-12-20T04:33:29;4.20;99.90
20690;DHT22;10504;48.762;8.996;2023-12-20T04:35:55;4.20;99.90
20690;DHT22;10504;48.762;8.996;2023-12-20T04:38:20;4.20;99.90
20690;DHT22;10504;48.762;8.996;2023-12-20T04:40:46;4.20;99.90
20690;DHT22;10504;48.762;8.996;2023-12-20T04:43:13;4.20;99.90
20690;DHT22;10504;48.762;8.996;2023-12-20T04:45:38;4.20;99.90
20690;DHT22;10504;48.762;8.996;2023-12-20T04:48:04;4.20;99.90
20690;DHT22;10504;48.762;8.996;2023-12-20T04:50:30;4.20;99.90
20690;DHT22;10504;48.762;8.996;2023-12-20T04:52:56;4.30;99.90
20690;DHT22;10504;48.762;8.996;2023-12-20T04:55:21;4.20;99.90
20690;DHT22;10504;48.762;8.996;2023-12-20T04:57:47;4.30;99.90
20690;DHT22;10504;48.762;8.996;2023-12-20T05:00:13;4.30;99.90
20690;DHT22;10504;48.762;8.996;2023-12-20T05:02:40;4.30;99.90
20690;DHT22;10504;48.762;8.996;2023-12-20T05:05:07;4.30;99.90
20690;DHT22;10504;48.762;8.996;2023-12-20T05:07:32;4.30;99.90
20690;DHT22;10504;48.762;8.996;2023-12-20T05:09:58;4.30;99.90
20690;DHT22;10504;48.762;8.996;2023-12-20T05:12:24;4.30;99.90
20690;DHT22;10504;48.762;8.996;2023-12-20T05:14:51;4.30;99.90
20690;DHT22;10504;48.762;8.996;2023-12-20T05:17:17;4.30;99.90
20690;DHT22;10504;48.762;8.996;2023-12-20T05:19:43;4.30;99.90
20690;DHT22;10504;48.762;8.996;2023-12-20T05:22:09;4.30;99.90
20690;DHT22;10504;48.762;8.996;2023-12-20T05:24:35;4.30;99.90
20690;DHT22;10504;48.762;8.996;2023-12-20T05:27:00;4.40;99.90
20690;DHT22;10504;48.762;8.996;2023-12-20T05:29:26;4.30;99.90
20690;DHT22;10504;48.762;8.996;2023-12-20T05:31:52;4.30;99.90
20690;DHT22;10504;48.762;8.996;2023-12-20T05:34:17;4.30;99.90
20690;DHT22;10504;48.762;8.996;2023-12-20T05:36:43;4.40;99.90
20690;DHT22;10504;48.762;8.996;2023-12-20T05:39:08;4.40;99.90
20690;DHT22;10504;48.762;8.996;2023-12-20T05:41:34;4.30;99.90
20690;DHT22;10504;48.762;8.996;2023-12-20T05:44:00;4.30;99.90
20690;DHT22;10504;48.762;8.996;2023-12-20T05:46:26;4.40;99.90
20690;DHT22;10504;48.762;8.996;2023-12-20T05:48:51;4.40;99.90
20690;DHT22;10504;48.762;8.996;2023-12-20T05:51:18;4.40;99.90
20690;DHT22;10504;48.762;8.996;2023-12-20T05:53:44;4.40;99.90
20690;DHT22;10504;48.762;8.996;2023-12-20T05:56:10;4.40;99.90
20690;DHT22;10504;48.762;8.996;2023-12-20T05:58:36;4.40;99.90
20690;DHT22;10504;48.762;8.996;2023-12-20T06:01:05;4.50;99.90
20690;DHT22;10504;48.762;8.996;2023-12-20T06:03:31;4.40;99.90
20690;DHT22;10504;48.762;8.996;2023-12-20T06:05:57;4.40;99.90
20690;DHT22;10504;48.762;8.996;2023-12-20T06:08:23;4.50;99.90
20690;DHT22;10504;48.762;8.996;2023-12-20T06:10:49;4.50;99.90
20690;DHT22;10504;48.762;8.996;2023-12-20T06:13:14;4.50;99.90
20690;DHT22;10504;48.762;8.996;2023-12-20T06:15:40;4.50;99.90
20690;DHT22;10504;48.762;8.996;2023-12-20T06:18:06;4.50;99.90
20690;DHT22;10504;48.762;8.996;2023-12-20T06:20:32;4.50;99.90
20690;DHT22;10504;48.762;8.996;2023-12-20T06:22:58;4.50;99.90
20690;DHT22;10504;48.762;8.996;2023-12-20T06:25:24;4.50;99.90
20690;DHT22;10504;48.762;8.996;2023-12-20T06:27:49;4.50;99.90
20690;DHT22;10504;48.762;8.996;2023-12-20T06:30:16;4.50;99.90
20690;DHT22;10504;48.762;8.996;2023-12-20T06:32:42;4.50;99.90
20690;DHT22;10504;48.762;8.996;2023-12-20T06:35:08;4.50;99.90
20690;DHT22;10504;48.762;8.996;2023-12-20T06:37:34;4.60;99.90
20690;DHT22;10504;48.762;8.996;2023-12-20T06:40:00;4.50;99.90
20690;DHT22;10504;48.762;8.996;2023-12-20T06:42:25;4.50;99.90
20690;DHT22;10504;48.762;8.996;2023-12-20T06:44:52;4.60;99.90
20690;DHT22;10504;48.762;8.996;2023-12-20T06:47:18;4.60;99.90
20690;DHT22;10504;48.762;8.996;2023-12-20T06:49:44;4.60;99.90
20690;DHT22;10504;48.762;8.996;2023-12-20T06:52:09;4.60;99.90
20690;DHT22;10504;48.762;8.996;2023-12-20T06:54:35;4.60;99.90
20690;DHT22;10504;48.762;8.996;2023-12-20T06:57:01;4.60;99.90
20690;DHT22;10504;48.762;8.996;2023-12-20T06:59:28;4.60;99.90
20690;DHT22;10504;48.762;8.996;2023-12-20T07:01:54;4.60;99.90
20690;DHT22;10504;48.762;8.996;2023-12-20T07:04:20;4.60;99.90
20690;DHT22;10504;48.762;8.996;2023-12-20T07:06:47;4.60;99.90
20690;DHT22;10504;48.762;8.996;2023-12-20T07:09:13;4.60;99.90
20690;DHT22;10504;48.762;8.996;2023-12-20T07:11:39;4.60;99.90
20690;DHT22;10504;48.762;8.996;2023-12-20T07:14:05;4.60;99.90
20690;DHT22;10504;48.762;8.996;2023-12-20T07:16:31;4.60;99.90
20690;DHT22;10504;48.762;8.996;2023-12-20T07:18:57;4.60;99.90
20690;DHT22;10504;48.762;8.996;2023-12-20T07:21:23;4.60;99.90
20690;DHT22;10504;48.762;8.996;2023-12-20T07:23:48;4.60;99.90
20690;DHT22;10504;48.762;8.996;2023-12-20T07:26:15;4.60;99.90
20690;DHT22;10504;48.762;8.996;2023-12-20T07:28:40;4.50;99.90
20690;DHT22;10504;48.762;8.996;2023-12-20T07:31:06;4.50;99.90
20690;DHT22;10504;48.762;8.996;2023-12-20T07:33:32;4.50;99.90
20690;DHT22;10504;48.762;8.996;2023-12-20T07:35:59;4.40;99.90
20690;DHT22;10504;48.762;8.996;2023-12-20T07:38:25;4.40;99.90
20690;DHT22;10504;48.762;8.996;2023-12-20T07:40:50;4.40;99.90
20690;DHT22;10504;48.762;8.996;2023-12-20T07:43:16;4.30;99.90
20690;DHT22;10504;48.762;8.996;2023-12-20T07:45:42;4.30;99.90
20690;DHT22;10504;48.762;8.996;2023-12-20T07:48:08;4.30;99.90
20690;DHT22;10504;48.762;8.996;2023-12-20T07:50:34;4.30;99.90
20690;DHT22;10504;48.762;8.996;2023-12-20T07:52:59;4.20;99.90
20690;DHT22;10504;48.762;8.996;2023-12-20T07:55:26;4.20;99.90
20690;DHT22;10504;48.762;8.996;2023-12-20T07:57:52;4.20;99.90
20690;DHT22;10504;48.762;8.996;2023-12-20T08:00:18;4.10;99.90
20690;DHT22;10504;48.762;8.996;2023-12-20T08:02:44;4.20;99.90
20690;DHT22;10504;48.762;8.996;2023-12-20T08:05:09;4.20;99.90
20690;DHT22;10504;48.762;8.996;2023-12-20T08:07:35;4.10;99.90
20690;DHT22;10504;48.762;8.996;2023-12-20T08:10:01;4.10;99.90
20690;DHT22;10504;48.762;8.996;2023-12-20T08:12:26;4.10;99.90
20690;DHT22;10504;48.762;8.996;2023-12-20T08:14:53;4.20;99.90
20690;DHT22;10504;48.762;8.996;2023-12-20T08:17:19;4.10;99.90
20690;DHT22;10504;48.762;8.996;2023-12-20T08:19:45;4.10;99.90
20690;DHT22;10504;48.762;8.996;2023-12-20T08:22:11;4.20;99.90
20690;DHT22;10504;48.762;8.996;2023-12-20T08:24:36;4.20;99.90
20690;DHT22;10504;48.762;8.996;2023-12-20T08:27:02;4.20;99.90
20690;DHT22;10504;48.762;8.996;2023-12-20T08:29:28;4.10;99.90
20690;DHT22;10504;48.762;8.996;2023-12-20T08:31:54;4.10;99.90
20690;DHT22;10504;48.762;8.996;2023-12-20T08:34:20;4.10;99.90
20690;DHT22;10504;48.762;8.996;2023-12-20T08:36:46;4.10;99.90
20690;DHT22;10504;48.762;8.996;2023-12-20T08:39:11;4.10;99.90
20690;DHT22;10504;48.762;8.996;2023-12-20T08:41:37;4.00;99.90
20690;DHT22;10504;48.762;8.996;2023-12-20T08:44:03;4.00;99.90
20690;DHT22;10504;48.762;8.996;2023-12-20T08:46:29;3.90;99.90
20690;DHT22;10504;48.762;8.996;2023-12-20T08:48:54;3.80;99.90
20690;DHT22;10504;48.762;8.996;2023-12-20T08:51:20;3.80;99.90
20690;DHT22;10504;48.762;8.996;2023-12-20T08:53:48;3.70;99.90
20690;DHT22;10504;48.762;8.996;2023-12-20T08:56:14;3.70;99.90
20690;DHT22;10504;48.762;8.996;2023-12-20T08:58:40;3.60;99.90
20690;DHT22;10504;48.762;8.996;2023-12-20T09:01:06;3.60;99.90
20690;DHT22;10504;48.762;8.996;2023-12-20T09:03:32;3.50;99.90
20690;DHT22;10504;48.762;8.996;2023-12-20T09:05:58;3.60;99.90
20690;DHT22;10504;48.762;8.996;2023-12-20T09:08:24;3.50;99.90
20690;DHT22;10504;48.762;8.996;2023-12-20T09:10:49;3.60;99.90
20690;DHT22;10504;48.762;8.996;2023-12-20T09:13:15;3.60;99.90
20690;DHT22;10504;48.762;8.996;2023-12-20T09:15:41;3.60;99.90
20690;DHT22;10504;48.762;8.996;2023-12-20T09:18:06;3.60;99.90
20690;DHT22;10504;48.762;8.996;2023-12-20T09:20:32;3.60;99.90
20690;DHT22;10504;48.762;8.996;2023-12-20T09:22:58;3.60;99.90
20690;DHT22;10504;48.762;8.996;2023-12-20T09:25:24;3.60;99.90
20690;DHT22;10504;48.762;8.996;2023-12-20T09:27:51;3.60;99.90
20690;DHT22;10504;48.762;8.996;2023-12-20T09:30:18;3.60;99.90
20690;DHT22;10504;48.762;8.996;2023-12-20T09:32:45;3.60;99.90
20690;DHT22;10504;48.762;8.996;2023-12-20T09:35:12;3.60;99.90
20690;DHT22;10504;48.762;8.996;2023-12-20T09:37:37;3.50;99.90
20690;DHT22;10504;48.762;8.996;2023-12-20T09:40:04;3.60;99.90
20690;DHT22;10504;48.762;8.996;2023-12-20T09:45:21;3.50;99.90
20690;DHT22;10504;48.762;8.996;2023-12-20T09:47:51;3.50;99.90
20690;DHT22;10504;48.762;8.996;2023-12-20T09:50:21;3.40;99.90
20690;DHT22;10504;48.762;8.996;2023-12-20T09:52:52;3.50;99.90
20690;DHT22;10504;48.762;8.996;2023-12-20T09:55:19;3.50;99.90
20690;DHT22;10504;48.762;8.996;2023-12-20T09:57:46;3.50;99.90
20690;DHT22;10504;48.762;8.996;2023-12-20T10:00:13;3.60;99.90
20690;DHT22;10504;48.762;8.996;2023-12-20T10:02:52;3.60;99.90
20690;DHT22;10504;48.762;8.996;2023-12-20T10:05:28;3.70;99.90
20690;DHT22;10504;48.762;8.996;2023-12-20T10:07:54;3.70;99.90
20690;DHT22;10504;48.762;8.996;2023-12-20T10:10:20;3.80;99.90
20690;DHT22;10504;48.762;8.996;2023-12-20T10:13:05;3.80;99.90
20690;DHT22;10504;48.762;8.996;2023-12-20T10:15:35;3.80;99.90
20690;DHT22;10504;48.762;8.996;2023-12-20T10:18:01;3.80;99.90
20690;DHT22;10504;48.762;8.996;2023-12-20T10:20:28;3.80;99.90
20690;DHT22;10504;48.762;8.996;2023-12-20T10:22:57;3.80;99.90
20690;DHT22;10504;48.762;8.996;2023-12-20T10:25:23;3.80;99.90
20690;DHT22;10504;48.762;8.996;2023-12-20T10:27:50;3.80;99.90
20690;DHT22;10504;48.762;8.996;2023-12-20T10:30:33;3.80;99.90
20690;DHT22;10504;48.762;8.996;2023-12-20T10:32:59;3.90;99.90
20690;DHT22;10504;48.762;8.996;2023-12-20T10:35:25;3.90;99.90
20690;DHT22;10504;48.762;8.996;2023-12-20T10:37:54;3.80;99.90
20690;DHT22;10504;48.762;8.996;2023-12-20T10:40:21;3.80;99.90
20690;DHT22;10504;48.762;8.996;2023-12-20T10:42:48;3.80;99.90
20690;DHT22;10504;48.762;8.996;2023-12-20T10:45:15;3.90;99.90
20690;DHT22;10504;48.762;8.996;2023-12-20T10:47:44;4.00;99.90
20690;DHT22;10504;48.762;8.996;2023-12-20T10:50:11;4.00;99.90
20690;DHT22;10504;48.762;8.996;2023-12-20T10:52:38;3.90;99.90
20690;DHT22;10504;48.762;8.996;2023-12-20T10:55:04;4.00;99.90
20690;DHT22;10504;48.762;8.996;2023-12-20T10:57:30;4.00;99.90
20690;DHT22;10504;48.762;8.996;2023-12-20T11:00:00;3.90;99.90
20690;DHT22;10504;48.762;8.996;2023-12-20T11:02:27;3.90;99.90
20690;DHT22;10504;48.762;8.996;2023-12-20T11:07:33;3.90;99.90
20690;DHT22;10504;48.762;8.996;2023-12-20T11:10:27;3.80;99.90
20690;DHT22;10504;48.762;8.996;2023-12-20T11:13:10;3.90;99.90
20690;DHT22;10504;48.762;8.996;2023-12-20T11:15:37;3.90;99.90
20690;DHT22;10504;48.762;8.996;2023-12-20T11:18:04;3.90;99.90
20690;DHT22;10504;48.762;8.996;2023-12-20T11:20:39;3.90;99.90
20690;DHT22;10504;48.762;8.996;2023-12-20T11:23:06;3.80;99.90
20690;DHT22;10504;48.762;8.996;2023-12-20T11:25:56;3.80;99.90
20690;DHT22;10504;48.762;8.996;2023-12-20T11:28:25;3.70;99.90
20690;DHT22;10504;48.762;8.996;2023-12-20T11:33:22;3.80;99.90
20690;DHT22;10504;48.762;8.996;2023-12-20T11:35:48;3.70;99.90
20690;DHT22;10504;48.762;8.996;2023-12-20T11:38:14;3.60;99.90
20690;DHT22;10504;48.762;8.996;2023-12-20T11:40:42;3.60;99.90
20690;DHT22;10504;48.762;8.996;2023-12-20T11:43:07;3.70;99.90
20690;DHT22;10504;48.762;8.996;2023-12-20T11:45:34;3.70;99.90
20690;DHT22;10504;48.762;8.996;2023-12-20T11:48:02;3.70;99.90
20690;DHT22;10504;48.762;8.996;2023-12-20T11:50:28;3.70;99.90
20690;DHT22;10504;48.762;8.996;2023-12-20T11:52:56;3.60;99.90
20690;DHT22;10504;48.762;8.996;2023-12-20T11:55:22;3.70;99.90
20690;DHT22;10504;48.762;8.996;2023-12-20T11:57:50;3.70;99.90
20690;DHT22;10504;48.762;8.996;2023-12-20T12:00:16;3.70;99.90
20690;DHT22;10504;48.762;8.996;2023-12-20T12:02:43;3.80;99.90
20690;DHT22;10504;48.762;8.996;2023-12-20T12:05:09;3.90;99.90
20690;DHT22;10504;48.762;8.996;2023-12-20T12:07:35;3.80;99.90
20690;DHT22;10504;48.762;8.996;2023-12-20T12:10:00;3.90;99.90
20690;DHT22;10504;48.762;8.996;2023-12-20T12:12:26;3.90;99.90
20690;DHT22;10504;48.762;8.996;2023-12-20T12:14:53;4.00;99.90
20690;DHT22;10504;48.762;8.996;2023-12-20T12:17:19;4.00;99.90
20690;DHT22;10504;48.762;8.996;2023-12-20T12:19:45;4.00;99.90
20690;DHT22;10504;48.762;8.996;2023-12-20T12:22:15;4.00;99.90
20690;DHT22;10504;48.762;8.996;2023-12-20T12:24:42;4.00;99.90
20690;DHT22;10504;48.762;8.996;2023-12-20T12:27:08;3.90;99.90
20690;DHT22;10504;48.762;8.996;2023-12-20T12:29:35;3.90;99.90
20690;DHT22;10504;48.762;8.996;2023-12-20T12:32:04;3.90;99.90
20690;DHT22;10504;48.762;8.996;2023-12-20T12:34:31;3.90;99.90
20690;DHT22;10504;48.762;8.996;2023-12-20T12:36:57;3.80;99.90
20690;DHT22;10504;48.762;8.996;2023-12-20T12:39:25;3.90;99.90
20690;DHT22;10504;48.762;8.996;2023-12-20T12:41:51;4.00;99.90
20690;DHT22;10504;48.762;8.996;2023-12-20T12:44:17;3.90;99.90
20690;DHT22;10504;48.762;8.996;2023-12-20T12:46:44;3.90;99.90
20690;DHT22;10504;48.762;8.996;2023-12-20T12:49:10;3.90;99.90
20690;DHT22;10504;48.762;8.996;2023-12-20T12:51:35;3.90;99.90
20690;DHT22;10504;48.762;8.996;2023-12-20T12:54:01;4.00;99.90
20690;DHT22;10504;48.762;8.996;2023-12-20T12:56:26;3.90;99.90
20690;DHT22;10504;48.762;8.996;2023-12-20T12:58:52;3.90;99.90
20690;DHT22;10504;48.762;8.996;2023-12-20T13:01:18;4.00;99.90
20690;DHT22;10504;48.762;8.996;2023-12-20T13:03:43;4.00;99.90
20690;DHT22;10504;48.762;8.996;2023-12-20T13:06:09;4.00;99.90
20690;DHT22;10504;48.762;8.996;2023-12-20T13:08:34;4.10;99.90
20690;DHT22;10504;48.762;8.996;2023-12-20T13:11:00;4.20;99.90
20690;DHT22;10504;48.762;8.996;2023-12-20T13:13:32;4.20;99.90
20690;DHT22;10504;48.762;8.996;2023-12-20T13:15:57;4.10;99.90
20690;DHT22;10504;48.762;8.996;2023-12-20T13:18:23;4.00;99.90
20690;DHT22;10504;48.762;8.996;2023-12-20T13:20:49;4.00;99.90
20690;DHT22;10504;48.762;8.996;2023-12-20T13:23:15;4.10;99.90
20690;DHT22;10504;48.762;8.996;2023-12-20T13:25:44;4.20;99.90
20690;DHT22;10504;48.762;8.996;2023-12-20T13:28:13;4.10;99.90
20690;DHT22;10504;48.762;8.996;2023-12-20T13:30:39;4.10;99.90
20690;DHT22;10504;48.762;8.996;2023-12-20T13:33:05;4.10;99.90
20690;DHT22;10504;48.762;8.996;2023-12-20T13:35:31;4.10;99.90
20690;DHT22;10504;48.762;8.996;2023-12-20T13:37:57;4.10;99.90
20690;DHT22;10504;48.762;8.996;2023-12-20T13:40:23;4.00;99.90
20690;DHT22;10504;48.762;8.996;2023-12-20T13:42:49;4.00;99.90
20690;DHT22;10504;48.762;8.996;2023-12-20T13:45:15;4.00;99.90
20690;DHT22;10504;48.762;8.996;2023-12-20T13:47:40;4.00;99.90
20690;DHT22;10504;48.762;8.996;2023-12-20T13:50:06;3.90;99.90
20690;DHT22;10504;48.762;8.996;2023-12-20T13:52:32;4.00;99.90
20690;DHT22;10504;48.762;8.996;2023-12-20T13:54:58;3.90;99.90
20690;DHT22;10504;48.762;8.996;2023-12-20T13:57:23;3.90;99.90
20690;DHT22;10504;48.762;8.996;2023-12-20T13:59:49;3.90;99.90
20690;DHT22;10504;48.762;8.996;2023-12-20T14:02:14;4.00;99.90
20690;DHT22;10504;48.762;8.996;2023-12-20T14:04:41;4.00;99.90
20690;DHT22;10504;48.762;8.996;2023-12-20T14:07:07;3.90;99.90
20690;DHT22;10504;48.762;8.996;2023-12-20T14:09:33;4.00;99.90
20690;DHT22;10504;48.762;8.996;2023-12-20T14:11:59;3.90;99.90
20690;DHT22;10504;48.762;8.996;2023-12-20T14:14:25;3.90;99.90
20690;DHT22;10504;48.762;8.996;2023-12-20T14:16:50;4.00;99.90
20690;DHT22;10504;48.762;8.996;2023-12-20T14:19:16;4.00;99.90
20690;DHT22;10504;48.762;8.996;2023-12-20T14:21:43;4.00;99.90
20690;DHT22;10504;48.762;8.996;2023-12-20T14:24:12;3.90;99.90
20690;DHT22;10504;48.762;8.996;2023-12-20T14:26:40;3.90;99.90
20690;DHT22;10504;48.762;8.996;2023-12-20T14:29:06;4.00;99.90
20690;DHT22;10504;48.762;8.996;2023-12-20T14:31:33;3.90;99.90
20690;DHT22;10504;48.762;8.996;2023-12-20T14:33:59;3.90;99.90
20690;DHT22;10504;48.762;8.996;2023-12-20T14:36:25;3.90;99.90
20690;DHT22;10504;48.762;8.996;2023-12-20T14:38:50;3.90;99.90
20690;DHT22;10504;48.762;8.996;2023-12-20T14:41:16;3.90;99.90
20690;DHT22;10504;48.762;8.996;2023-12-20T14:43:44;3.90;99.90
20690;DHT22;10504;48.762;8.996;2023-12-20T14:46:10;3.90;99.90
20690;DHT22;10504;48.762;8.996;2023-12-20T14:48:35;3.90;99.90
20690;DHT22;10504;48.762;8.996;2023-12-20T14:51:01;3.90;99.90
20690;DHT22;10504;48.762;8.996;2023-12-20T14:53:27;4.00;99.90
20690;DHT22;10504;48.762;8.996;2023-12-20T14:55:52;4.00;99.90
20690;DHT22;10504;48.762;8.996;2023-12-20T14:58:18;4.00;99.90
20690;DHT22;10504;48.762;8.996;2023-12-20T15:00:43;4.00;99.90
20690;DHT22;10504;48.762;8.996;2023-12-20T15:03:10;4.00;99.90
20690;DHT22;10504;48.762;8.996;2023-12-20T15:05:36;4.00;99.90
20690;DHT22;10504;48.762;8.996;2023-12-20T15:08:02;4.00;99.90
20690;DHT22;10504;48.762;8.996;2023-12-20T15:10:28;4.00;99.90
20690;DHT22;10504;48.762;8.996;2023-12-20T15:12:53;4.00;99.90
20690;DHT22;10504;48.762;8.996;2023-12-20T15:15:21;4.00;99.90
20690;DHT22;10504;48.762;8.996;2023-12-20T15:17:47;4.10;99.90
20690;DHT22;10504;48.762;8.996;2023-12-20T15:20:13;4.00;99.90
20690;DHT22;10504;48.762;8.996;2023-12-20T15:22:39;4.00;99.90
20690;DHT22;10504;48.762;8.996;2023-12-20T15:25:06;4.00;99.90
20690;DHT22;10504;48.762;8.996;2023-12-20T15:27:34;4.00;99.90
20690;DHT22;10504;48.762;8.996;2023-12-20T15:30:03;4.10;99.90
20690;DHT22;10504;48.762;8.996;2023-12-20T15:32:28;4.10;99.90
20690;DHT22;10504;48.762;8.996;2023-12-20T15:34:54;4.00;99.90
20690;DHT22;10504;48.762;8.996;2023-12-20T15:37:20;4.00;99.90
20690;DHT22;10504;48.762;8.996;2023-12-20T15:39:45;4.00;99.90
20690;DHT22;10504;48.762;8.996;2023-12-20T15:42:11;4.00;99.90
20690;DHT22;10504;48.762;8.996;2023-12-20T15:44:37;4.00;99.90
20690;DHT22;10504;48.762;8.996;2023-12-20T15:47:02;4.00;99.90